createdAt,value
2018-10-21T00:01:36.932Z,81.17
2018-10-21T00:02:36.891Z,81.45
2018-10-21T00:04:29.715Z,81.45
2018-10-21T00:05:29.647Z,81.45
2018-10-21T00:07:22.445Z,81.36
2018-10-21T00:08:22.415Z,81.45
2018-10-21T00:10:15.230Z,81.36
2018-10-21T00:11:15.166Z,80.98
2018-10-21T00:13:07.965Z,81.45
2018-10-21T00:14:07.919Z,81.17
2018-10-21T00:16:00.739Z,81.36
2018-10-21T00:17:00.681Z,81.17
2018-10-21T00:18:53.495Z,80.88
2018-10-21T00:19:53.436Z,80.88
2018-10-21T00:21:46.257Z,81.17
2018-10-21T00:22:46.197Z,81.17
2018-10-21T00:24:39.006Z,80.88
2018-10-21T00:25:38.947Z,81.45
2018-10-21T00:27:31.766Z,81.45
2018-10-21T00:28:31.717Z,81.36
2018-10-21T00:30:24.532Z,81.45
2018-10-21T00:31:24.476Z,81.07
2018-10-21T00:33:17.327Z,81.26
2018-10-21T00:34:17.232Z,81.07
2018-10-21T00:36:10.036Z,81.65
2018-10-21T00:37:09.985Z,81.26
2018-10-21T00:39:02.842Z,81.45
2018-10-21T00:40:02.750Z,81.45
2018-10-21T00:41:55.580Z,81.45
2018-10-21T00:42:55.507Z,81.45
2018-10-21T00:44:48.344Z,81.36
2018-10-21T00:45:48.263Z,81.45
2018-10-21T00:47:41.066Z,80.98
2018-10-21T00:48:41.035Z,81.36
2018-10-21T00:50:33.842Z,81.55
2018-10-21T00:51:33.792Z,81.36
2018-10-21T00:53:26.604Z,81.36
2018-10-21T00:54:26.561Z,81.45
2018-10-21T00:56:19.362Z,81.55
2018-10-21T00:57:19.314Z,81.93
2018-10-21T00:59:12.114Z,81.45
2018-10-21T01:00:12.064Z,81.17
2018-10-21T01:02:04.881Z,81.07
2018-10-21T01:03:04.840Z,80.88
2018-10-21T01:04:57.632Z,81.26
2018-10-21T01:05:57.586Z,81.26
2018-10-21T01:07:50.383Z,81.45
2018-10-21T01:08:50.333Z,81.45
2018-10-21T01:10:43.136Z,81.45
2018-10-21T01:11:43.089Z,81.17
2018-10-21T01:13:35.928Z,81.26
2018-10-21T01:14:35.847Z,81.36
2018-10-21T01:16:28.656Z,81.55
2018-10-21T01:17:28.609Z,82.12
2018-10-21T01:19:21.424Z,81.65
2018-10-21T01:20:21.356Z,81.74
2018-10-21T01:22:14.177Z,81.84
2018-10-21T01:23:14.119Z,81.55
2018-10-21T01:25:06.939Z,81.55
2018-10-21T01:26:06.874Z,81.45
2018-10-21T01:27:59.710Z,81.45
2018-10-21T01:28:59.642Z,81.65
2018-10-21T01:30:52.437Z,81.84
2018-10-21T01:31:52.409Z,81.74
2018-10-21T01:33:45.228Z,81.84
2018-10-21T01:34:45.163Z,81.74
2018-10-21T01:36:38.228Z,81.65
2018-10-21T01:37:37.932Z,81.55
2018-10-21T01:39:30.745Z,82.03
2018-10-21T01:40:30.690Z,81.65
2018-10-21T01:42:23.505Z,81.65
2018-10-21T01:43:23.455Z,82.21
2018-10-21T01:45:16.283Z,81.84
2018-10-21T01:46:16.198Z,81.74
2018-10-21T01:48:09.021Z,81.93
2018-10-21T01:49:08.968Z,81.84
2018-10-21T01:51:01.789Z,82.03
2018-10-21T01:52:01.719Z,81.55
2018-10-21T01:53:54.541Z,81.74
2018-10-21T01:54:54.493Z,81.84
2018-10-21T01:56:47.280Z,82.03
2018-10-21T01:57:47.239Z,82.03
2018-10-21T01:59:40.050Z,82.03
2018-10-21T02:00:39.984Z,81.65
2018-10-21T02:02:32.801Z,81.74
2018-10-21T02:03:32.750Z,81.84
2018-10-21T02:05:25.606Z,81.84
2018-10-21T02:06:25.502Z,81.84
2018-10-21T02:08:18.355Z,81.84
2018-10-21T02:09:18.270Z,82.03
2018-10-21T02:11:11.080Z,81.84
2018-10-21T02:12:11.029Z,82.03
2018-10-21T02:14:03.883Z,81.84
2018-10-21T02:15:03.837Z,82.03
2018-10-21T02:16:56.577Z,82.03
2018-10-21T02:17:56.536Z,82.03
2018-10-21T02:19:49.349Z,82.12
2018-10-21T02:20:49.290Z,81.93
2018-10-21T02:22:42.086Z,81.45
2018-10-21T02:23:42.046Z,81.65
2018-10-21T02:25:34.861Z,81.45
2018-10-21T02:26:34.815Z,81.45
2018-10-21T02:28:27.601Z,81.60
2018-10-21T02:29:27.572Z,81.74
2018-10-21T02:31:20.381Z,81.65
2018-10-21T02:32:20.322Z,81.60
2018-10-21T02:34:13.227Z,81.93
2018-10-21T02:35:13.081Z,81.84
2018-10-21T02:37:05.896Z,81.74
2018-10-21T02:38:05.852Z,81.79
2018-10-21T02:39:58.640Z,81.84
2018-10-21T02:40:58.608Z,81.70
2018-10-21T02:42:51.423Z,82.40
2018-10-21T02:43:51.371Z,81.70
2018-10-21T02:45:44.171Z,81.51
2018-10-21T02:46:44.132Z,81.41
2018-10-21T02:48:36.937Z,81.41
2018-10-21T02:49:36.883Z,81.70
2018-10-21T02:51:29.701Z,82.46
2018-10-21T02:52:29.659Z,81.41
2018-10-21T02:54:22.437Z,81.32
2018-10-21T02:55:22.412Z,81.79
2018-10-21T02:57:15.308Z,81.51
2018-10-21T02:58:15.162Z,81.41
2018-10-21T03:00:07.952Z,81.51
2018-10-21T03:01:07.928Z,82.36
2018-10-21T03:03:00.740Z,81.98
2018-10-21T03:04:00.693Z,81.79
2018-10-21T03:05:53.483Z,82.08
2018-10-21T03:06:53.446Z,81.70
2018-10-21T03:08:46.260Z,81.88
2018-10-21T03:09:46.194Z,82.36
2018-10-21T03:11:38.999Z,81.88
2018-10-21T03:12:38.968Z,81.60
2018-10-21T03:14:31.774Z,81.88
2018-10-21T03:15:31.724Z,81.88
2018-10-21T03:17:24.539Z,81.98
2018-10-21T03:18:24.492Z,82.08
2018-10-21T03:20:17.269Z,81.98
2018-10-21T03:21:17.338Z,81.70
2018-10-21T03:23:10.043Z,81.60
2018-10-21T03:24:09.988Z,81.79
2018-10-21T03:26:02.784Z,81.70
2018-10-21T03:27:02.806Z,81.70
2018-10-21T03:28:55.563Z,81.60
2018-10-21T03:29:55.503Z,82.27
2018-10-21T03:31:48.303Z,81.98
2018-10-21T03:32:48.304Z,82.27
2018-10-21T03:34:41.089Z,82.08
2018-10-21T03:35:41.082Z,81.98
2018-10-21T03:37:33.825Z,81.79
2018-10-21T03:38:33.794Z,82.46
2018-10-21T03:40:26.604Z,81.79
2018-10-21T03:41:26.530Z,82.36
2018-10-21T03:43:19.355Z,81.79
2018-10-21T03:44:19.305Z,82.36
2018-10-21T03:46:12.160Z,82.17
2018-10-21T03:47:12.055Z,82.08
2018-10-21T03:49:04.871Z,82.17
2018-10-21T03:50:04.813Z,81.98
2018-10-21T03:51:57.634Z,82.84
2018-10-21T03:52:57.569Z,82.08
2018-10-21T03:54:50.384Z,82.74
2018-10-21T03:55:50.344Z,82.42
2018-10-21T03:57:43.137Z,82.55
2018-10-21T03:58:43.085Z,82.65
2018-10-21T04:00:35.885Z,83.03
2018-10-21T04:01:35.845Z,82.93
2018-10-21T04:03:28.678Z,82.65
2018-10-21T04:04:28.614Z,82.65
2018-10-21T04:06:21.429Z,82.65
2018-10-21T04:07:21.380Z,82.84
2018-10-21T04:09:14.161Z,82.93
2018-10-21T04:10:14.164Z,82.55
2018-10-21T04:12:06.956Z,82.36
2018-10-21T04:13:06.884Z,83.03
2018-10-21T04:14:59.691Z,82.36
2018-10-21T04:15:59.643Z,82.98
2018-10-21T04:17:52.441Z,82.32
2018-10-21T04:18:52.395Z,82.70
2018-10-21T04:20:45.199Z,82.98
2018-10-21T04:21:45.146Z,82.79
2018-10-21T04:23:37.936Z,82.98
2018-10-21T04:24:37.895Z,82.60
2018-10-21T04:26:30.712Z,82.60
2018-10-21T04:27:30.656Z,82.55
2018-10-21T04:29:23.457Z,82.65
2018-10-21T04:30:23.415Z,82.70
2018-10-21T04:32:16.221Z,82.79
2018-10-21T04:33:16.177Z,82.84
2018-10-21T04:35:08.967Z,82.79
2018-10-21T04:36:08.925Z,82.74
2018-10-21T04:38:01.732Z,82.79
2018-10-21T04:39:01.683Z,82.98
2018-10-21T04:40:54.492Z,82.46
2018-10-21T04:41:54.441Z,83.03
2018-10-21T04:43:47.236Z,82.55
2018-10-21T04:44:47.186Z,83.03
2018-10-21T04:46:40.119Z,82.46
2018-10-21T04:47:39.956Z,82.42
2018-10-21T04:49:32.750Z,82.46
2018-10-21T04:50:32.713Z,82.36
2018-10-21T04:52:25.517Z,82.65
2018-10-21T04:53:25.456Z,82.55
2018-10-21T04:55:18.263Z,82.84
2018-10-21T04:56:18.212Z,82.65
2018-10-21T04:58:11.100Z,82.36
2018-10-21T04:59:10.969Z,82.84
2018-10-21T05:01:03.766Z,82.55
2018-10-21T05:02:03.733Z,83.03
2018-10-21T05:03:56.548Z,83.03
2018-10-21T05:04:56.477Z,82.65
2018-10-21T05:06:49.297Z,82.84
2018-10-21T05:07:49.252Z,82.84
2018-10-21T05:09:42.049Z,82.65
2018-10-21T05:10:41.993Z,82.55
2018-10-21T05:12:34.798Z,82.93
2018-10-21T05:13:34.741Z,82.93
2018-10-21T05:15:27.554Z,83.03
2018-10-21T05:16:27.506Z,83.03
2018-10-21T05:18:20.317Z,82.55
2018-10-21T05:19:20.256Z,82.84
2018-10-21T05:21:13.057Z,82.55
2018-10-21T05:22:13.060Z,83.03
2018-10-21T05:24:05.911Z,82.93
2018-10-21T05:25:05.777Z,82.65
2018-10-21T05:26:58.562Z,82.93
2018-10-21T05:27:58.587Z,82.55
2018-10-21T05:29:51.339Z,82.93
2018-10-21T05:30:51.279Z,82.84
2018-10-21T05:32:44.105Z,82.84
2018-10-21T05:33:44.035Z,82.55
2018-10-21T05:35:36.855Z,82.93
2018-10-21T05:36:36.802Z,82.55
2018-10-21T05:38:29.619Z,82.93
2018-10-21T05:39:29.555Z,82.55
2018-10-21T05:41:22.345Z,82.93
2018-10-21T05:42:22.305Z,82.84
2018-10-21T05:44:15.124Z,83.03
2018-10-21T05:45:15.069Z,83.03
2018-10-21T05:47:07.888Z,82.65
2018-10-21T05:48:07.820Z,82.55
2018-10-21T05:50:00.636Z,83.12
2018-10-21T05:51:00.575Z,82.55
2018-10-21T05:52:53.376Z,83.12
2018-10-21T05:53:53.346Z,82.65
2018-10-21T05:55:46.151Z,82.93
2018-10-21T05:56:46.111Z,82.93
2018-10-21T05:58:38.884Z,82.84
2018-10-21T05:59:38.841Z,82.93
2018-10-21T06:01:31.651Z,82.46
2018-10-21T06:02:31.600Z,82.84
2018-10-21T06:04:24.425Z,83.03
2018-10-21T06:05:24.360Z,82.84
2018-10-21T06:07:17.151Z,82.84
2018-10-21T06:08:17.112Z,82.84
2018-10-21T06:10:09.979Z,82.65
2018-10-21T06:11:09.865Z,82.84
2018-10-21T06:13:02.670Z,82.65
2018-10-21T06:14:02.618Z,82.65
2018-10-21T06:15:55.456Z,82.65
2018-10-21T06:16:55.377Z,82.84
2018-10-21T06:18:48.171Z,82.55
2018-10-21T06:19:48.130Z,82.65
2018-10-21T06:21:40.956Z,82.93
2018-10-21T06:22:40.897Z,82.93
2018-10-21T06:24:33.687Z,82.84
2018-10-21T06:25:33.646Z,82.93
2018-10-21T06:27:26.473Z,82.65
2018-10-21T06:28:26.401Z,82.84
2018-10-21T06:30:19.202Z,82.74
2018-10-21T06:31:19.164Z,82.65
2018-10-21T06:33:12.040Z,82.74
2018-10-21T06:34:11.926Z,82.65
2018-10-21T06:36:04.738Z,82.93
2018-10-21T06:37:04.678Z,82.84
2018-10-21T06:38:57.526Z,82.65
2018-10-21T06:39:57.463Z,82.55
2018-10-21T06:41:50.305Z,82.93
2018-10-21T06:42:50.226Z,83.12
2018-10-21T06:44:43.034Z,82.84
2018-10-21T06:45:43.096Z,82.84
2018-10-21T06:47:35.798Z,82.84
2018-10-21T06:48:35.811Z,82.65
2018-10-21T06:50:28.557Z,82.84
2018-10-21T06:51:28.523Z,82.74
2018-10-21T06:53:21.332Z,82.84
2018-10-21T06:54:21.273Z,82.55
2018-10-21T06:56:14.117Z,82.55
2018-10-21T06:57:14.249Z,82.84
2018-10-21T06:59:06.847Z,82.65
2018-10-21T07:00:06.798Z,82.84
2018-10-21T07:01:59.597Z,82.74
2018-10-21T07:02:59.549Z,82.84
2018-10-21T07:04:52.376Z,82.84
2018-10-21T07:05:52.303Z,82.69
2018-10-21T07:07:45.109Z,82.21
2018-10-21T07:08:45.058Z,82.21
2018-10-21T07:10:37.848Z,82.31
2018-10-21T07:11:37.799Z,82.21
2018-10-21T07:13:30.624Z,82.12
2018-10-21T07:14:30.560Z,82.31
2018-10-21T07:16:23.409Z,82.40
2018-10-21T07:17:23.325Z,82.12
2018-10-21T07:19:16.149Z,82.03
2018-10-21T07:20:16.120Z,82.03
2018-10-21T07:22:08.935Z,82.88
2018-10-21T07:23:08.844Z,82.03
2018-10-21T07:25:01.664Z,82.21
2018-10-21T07:26:01.624Z,82.69
2018-10-21T07:27:55.431Z,82.88
2018-10-21T07:28:55.369Z,82.69
2018-10-21T07:30:48.159Z,82.78
2018-10-21T07:31:48.114Z,82.88
2018-10-21T07:33:40.926Z,82.88
2018-10-21T07:34:40.884Z,82.69
2018-10-21T07:36:33.703Z,82.69
2018-10-21T07:37:33.636Z,82.69
2018-10-21T07:39:26.450Z,82.59
2018-10-21T07:40:26.396Z,82.69
2018-10-21T07:42:19.184Z,82.92
2018-10-21T07:43:19.151Z,83.01
2018-10-21T07:45:11.961Z,83.01
2018-10-21T07:46:11.983Z,82.82
2018-10-21T07:48:04.699Z,82.26
2018-10-21T07:49:04.681Z,82.16
2018-10-21T07:50:57.508Z,82.16
2018-10-21T07:51:57.443Z,82.82
2018-10-21T07:53:50.226Z,82.82
2018-10-21T07:54:50.186Z,82.07
2018-10-21T07:56:42.997Z,81.97
2018-10-21T07:57:42.945Z,82.26
2018-10-21T07:59:35.761Z,82.10
2018-10-21T08:00:35.692Z,82.20
2018-10-21T08:02:28.500Z,82.29
2018-10-21T08:03:28.460Z,82.29
2018-10-21T08:05:21.269Z,82.01
2018-10-21T08:06:21.205Z,82.10
2018-10-21T08:08:14.011Z,82.10
2018-10-21T08:09:13.968Z,82.01
2018-10-21T08:11:06.787Z,82.10
2018-10-21T08:12:06.736Z,82.10
2018-10-21T08:13:59.530Z,82.10
2018-10-21T08:14:59.542Z,82.15
2018-10-21T08:16:52.292Z,81.77
2018-10-21T08:17:52.247Z,81.77
2018-10-21T08:19:45.063Z,82.05
2018-10-21T08:20:45.008Z,81.96
2018-10-21T08:22:37.839Z,81.77
2018-10-21T08:23:37.770Z,81.96
2018-10-21T08:25:30.588Z,81.96
2018-10-21T08:26:30.538Z,81.58
2018-10-21T08:28:23.336Z,81.96
2018-10-21T08:29:23.292Z,81.77
2018-10-21T08:31:16.112Z,81.71
2018-10-21T08:32:16.057Z,81.81
2018-10-21T08:34:08.907Z,81.71
2018-10-21T08:35:08.816Z,81.71
2018-10-21T08:37:01.624Z,81.81
2018-10-21T08:38:01.577Z,81.71
2018-10-21T08:39:54.391Z,82.00
2018-10-21T08:40:54.347Z,81.33
2018-10-21T08:42:47.148Z,81.90
2018-10-21T08:43:47.098Z,81.52
2018-10-21T08:45:39.902Z,81.37
2018-10-21T08:46:39.942Z,81.47
2018-10-21T08:48:32.676Z,81.85
2018-10-21T08:49:32.632Z,81.95
2018-10-21T08:51:25.428Z,80.99
2018-10-21T08:52:25.388Z,81.28
2018-10-21T08:54:18.197Z,81.28
2018-10-21T08:55:18.152Z,81.37
2018-10-21T08:57:10.969Z,81.41
2018-10-21T08:58:11.020Z,80.84
2018-10-21T09:00:03.712Z,80.65
2018-10-21T09:01:03.736Z,80.55
2018-10-21T09:02:56.494Z,80.75
2018-10-21T09:03:56.494Z,80.36
2018-10-21T09:05:49.239Z,80.36
2018-10-21T09:06:49.203Z,80.50
2018-10-21T09:08:42.045Z,80.41
2018-10-21T09:09:41.972Z,80.31
2018-10-21T09:11:34.779Z,79.36
2018-10-21T09:12:34.744Z,80.22
2018-10-21T09:14:27.546Z,79.64
2018-10-21T09:15:27.547Z,79.36
2018-10-21T09:17:20.299Z,79.74
2018-10-21T09:18:20.269Z,79.68
2018-10-21T09:20:13.082Z,79.40
2018-10-21T09:21:13.028Z,79.49
2018-10-21T09:23:05.838Z,79.21
2018-10-21T09:24:05.804Z,79.02
2018-10-21T09:25:58.622Z,78.77
2018-10-21T09:26:58.575Z,79.06
2018-10-21T09:28:51.385Z,78.67
2018-10-21T09:29:51.343Z,78.96
2018-10-21T09:31:44.142Z,78.85
2018-10-21T09:32:44.105Z,78.13
2018-10-21T09:34:36.929Z,76.57
2018-10-21T09:35:36.881Z,76.84
2018-10-21T09:37:29.707Z,74.62
2018-10-21T09:38:29.658Z,71.50
2018-10-21T09:40:22.497Z,66.58
2018-10-21T09:41:22.441Z,63.03
2018-10-21T09:43:15.374Z,58.67
2018-10-21T09:44:15.235Z,58.22
2018-10-21T09:46:08.119Z,54.43
2018-10-21T09:47:08.016Z,53.21
2018-10-21T09:49:00.862Z,50.54
2018-10-21T09:50:00.908Z,50.37
2018-10-21T09:51:53.642Z,48.01
2018-10-21T09:52:53.602Z,47.14
2018-10-21T09:54:46.430Z,46.51
2018-10-21T09:55:46.407Z,45.57
2018-10-21T09:57:39.237Z,43.47
2018-10-21T09:58:39.305Z,42.60
2018-10-21T10:00:32.077Z,41.85
2018-10-21T10:01:32.000Z,40.81
2018-10-21T10:03:24.830Z,40.15
2018-10-21T10:04:24.948Z,39.86
2018-10-21T10:06:17.634Z,39.20
2018-10-21T10:07:17.667Z,38.54
2018-10-21T10:09:10.435Z,37.96
2018-10-21T10:10:10.439Z,37.79
2018-10-21T10:12:03.276Z,37.01
2018-10-21T10:13:03.237Z,37.49
2018-10-21T10:14:56.054Z,35.85
2018-10-21T10:15:56.036Z,36.16
2018-10-21T10:17:48.978Z,35.78
2018-10-21T10:18:48.827Z,35.69
2018-10-21T10:20:41.676Z,34.46
2018-10-21T10:21:41.642Z,34.08
2018-10-21T10:23:34.583Z,32.81
2018-10-21T10:24:34.441Z,32.99
2018-10-21T10:26:28.281Z,33.25
2018-10-21T10:27:28.262Z,34.12
2018-10-21T10:29:22.588Z,34.36
2018-10-21T10:30:22.620Z,33.69
2018-10-21T10:32:15.912Z,34.01
2018-10-21T10:33:15.861Z,32.84
2018-10-21T10:35:08.695Z,31.68
2018-10-21T10:36:08.738Z,31.19
2018-10-21T10:38:01.997Z,30.58
2018-10-21T10:39:01.971Z,32.42
2018-10-21T10:40:55.292Z,31.87
2018-10-21T10:41:55.350Z,31.19
2018-10-21T10:43:48.618Z,31.03
2018-10-21T10:44:48.591Z,30.43
2018-10-21T10:46:41.416Z,30.44
2018-10-21T10:47:41.400Z,29.86
2018-10-21T10:49:34.251Z,29.96
2018-10-21T10:50:34.206Z,29.96
2018-10-21T10:52:27.046Z,29.39
2018-10-21T10:53:27.008Z,29.79
2018-10-21T10:55:19.971Z,28.63
2018-10-21T10:56:19.812Z,28.25
2018-10-21T10:58:12.683Z,28.64
2018-10-21T10:59:12.633Z,27.95
2018-10-21T11:01:05.524Z,28.51
2018-10-21T11:02:05.436Z,29.58
2018-10-21T11:03:58.309Z,28.99
2018-10-21T11:04:58.253Z,29.49
2018-10-21T11:06:51.083Z,28.79
2018-10-21T11:07:51.062Z,29.26
2018-10-21T11:09:43.912Z,29.83
2018-10-21T11:10:43.866Z,30.32
2018-10-21T11:12:36.735Z,30.62
2018-10-21T11:13:36.688Z,30.21
2018-10-21T11:15:29.523Z,31.84
2018-10-21T11:16:29.497Z,31.29
2018-10-21T11:18:22.332Z,30.72
2018-10-21T11:19:22.339Z,29.57
2018-10-21T11:21:15.124Z,28.42
2018-10-21T11:22:15.132Z,28.32
2018-10-21T11:24:07.953Z,29.36
2018-10-21T11:25:07.952Z,29.65
2018-10-21T11:27:00.744Z,30.14
2018-10-21T11:28:00.734Z,29.57
2018-10-21T11:29:53.563Z,29.21
2018-10-21T11:30:53.542Z,28.23
2018-10-21T11:32:46.849Z,28.04
2018-10-21T11:33:46.834Z,28.25
2018-10-21T11:35:40.188Z,28.16
2018-10-21T11:36:40.186Z,27.29
2018-10-21T11:38:32.954Z,26.59
2018-10-21T11:39:32.934Z,27.05
2018-10-21T11:41:26.268Z,27.75
2018-10-21T11:42:26.238Z,27.62
2018-10-21T11:44:19.564Z,28.43
2018-10-21T11:45:19.542Z,27.94
2018-10-21T11:47:12.380Z,27.54
2018-10-21T11:48:12.351Z,28.29
2018-10-21T11:50:05.209Z,30.87
2018-10-21T11:51:05.150Z,30.48
2018-10-21T11:52:57.977Z,30.47
2018-10-21T11:53:57.949Z,30.47
2018-10-21T11:55:51.296Z,31.41
2018-10-21T11:56:51.255Z,32.09
2018-10-21T11:58:44.573Z,33.04
2018-10-21T11:59:44.556Z,33.22
2018-10-21T12:01:37.391Z,34.17
2018-10-21T12:02:37.346Z,33.87
2018-10-21T12:04:30.165Z,35.92
2018-10-21T12:05:30.140Z,37.75
2018-10-21T12:07:23.008Z,39.20
2018-10-21T12:08:22.947Z,38.23
2018-10-21T12:10:15.840Z,39.37
2018-10-21T12:11:15.746Z,39.57
2018-10-21T12:13:08.636Z,40.15
2018-10-21T12:14:08.533Z,40.63
2018-10-21T12:16:01.425Z,40.03
2018-10-21T12:17:01.323Z,40.12
2018-10-21T12:18:54.198Z,41.34
2018-10-21T12:19:54.190Z,41.44
2018-10-21T12:21:46.939Z,42.69
2018-10-21T12:22:46.913Z,42.79
2018-10-21T12:24:39.721Z,42.69
2018-10-21T12:25:39.784Z,42.88
2018-10-21T12:27:32.522Z,42.96
2018-10-21T12:28:32.473Z,43.15
2018-10-21T12:30:25.295Z,44.28
2018-10-21T12:31:25.263Z,44.48
2018-10-21T12:33:18.096Z,44.48
2018-10-21T12:34:18.074Z,44.28
2018-10-21T12:36:10.866Z,45.25
2018-10-21T12:37:10.914Z,45.25
2018-10-21T12:39:03.665Z,44.48
2018-10-21T12:40:03.620Z,44.57
2018-10-21T12:41:56.441Z,44.55
2018-10-21T12:42:56.414Z,44.55
2018-10-21T12:44:49.228Z,44.74
2018-10-21T12:45:49.193Z,44.74
2018-10-21T12:47:42.043Z,46.09
2018-10-21T12:48:41.983Z,45.03
2018-10-21T12:50:34.813Z,44.74
2018-10-21T12:51:34.762Z,45.22
2018-10-21T12:53:27.589Z,44.45
2018-10-21T12:54:27.694Z,44.74
2018-10-21T12:56:20.367Z,45.22
2018-10-21T12:57:20.337Z,45.42
2018-10-21T12:59:13.162Z,45.13
2018-10-21T13:00:13.112Z,45.80
2018-10-21T13:02:05.957Z,45.13
2018-10-21T13:03:05.899Z,44.82
2018-10-21T13:04:58.717Z,45.39
2018-10-21T13:05:58.693Z,45.78
2018-10-21T13:07:51.522Z,46.04
2018-10-21T13:08:51.452Z,47.39
2018-10-21T13:10:44.291Z,47.68
2018-10-21T13:11:44.263Z,47.30
2018-10-21T13:13:37.085Z,47.30
2018-10-21T13:14:37.043Z,46.91
2018-10-21T13:16:29.867Z,46.14
2018-10-21T13:17:29.829Z,46.53
2018-10-21T13:19:22.670Z,46.43
2018-10-21T13:20:22.610Z,46.41
2018-10-21T13:22:15.464Z,47.72
2018-10-21T13:23:15.397Z,48.11
2018-10-21T13:25:08.324Z,48.59
2018-10-21T13:26:08.175Z,48.11
2018-10-21T13:28:01.017Z,48.59
2018-10-21T13:29:01.046Z,48.30
2018-10-21T13:30:53.831Z,49.48
2018-10-21T13:31:53.750Z,49.00
2018-10-21T13:33:46.544Z,48.23
2018-10-21T13:34:46.604Z,48.33
2018-10-21T13:36:39.528Z,47.66
2018-10-21T13:37:39.489Z,48.43
2018-10-21T13:39:32.351Z,47.56
2018-10-21T13:40:32.313Z,48.71
2018-10-21T13:42:25.098Z,48.43
2018-10-21T13:43:25.057Z,47.46
2018-10-21T13:45:18.892Z,47.36
2018-10-21T13:46:18.888Z,47.27
2018-10-21T13:48:11.661Z,47.27
2018-10-21T13:49:11.663Z,47.36
2018-10-21T13:51:04.470Z,47.08
2018-10-21T13:52:04.573Z,46.69
2018-10-21T13:53:57.229Z,47.53
2018-10-21T13:54:57.255Z,48.02
2018-10-21T13:56:50.025Z,48.61
2018-10-21T13:57:49.970Z,47.27
2018-10-21T13:59:42.784Z,46.31
2018-10-21T14:00:42.883Z,46.69
2018-10-21T14:02:35.595Z,47.27
2018-10-21T14:03:35.532Z,47.75
2018-10-21T14:05:28.344Z,46.41
2018-10-21T14:06:28.319Z,46.12
2018-10-21T14:08:21.160Z,46.23
2018-10-21T14:09:21.105Z,46.89
2018-10-21T14:11:13.916Z,46.79
2018-10-21T14:12:13.884Z,46.81
2018-10-21T14:14:06.721Z,46.23
2018-10-21T14:15:06.717Z,45.66
2018-10-21T14:16:59.502Z,45.37
2018-10-21T14:17:59.452Z,45.10
2018-10-21T14:19:52.255Z,45.68
2018-10-21T14:20:52.239Z,44.84
2018-10-21T14:22:45.556Z,44.26
2018-10-21T14:23:45.517Z,44.17
2018-10-21T14:25:38.321Z,42.91
2018-10-21T14:26:38.322Z,43.01
2018-10-21T14:28:31.145Z,42.91
2018-10-21T14:29:31.091Z,43.40
2018-10-21T14:31:23.921Z,42.63
2018-10-21T14:32:23.896Z,42.91
2018-10-21T14:34:16.726Z,43.11
2018-10-21T14:35:16.681Z,43.30
2018-10-21T14:37:09.493Z,43.30
2018-10-21T14:38:09.564Z,44.26
2018-10-21T14:40:02.288Z,43.18
2018-10-21T14:41:02.254Z,44.05
2018-10-21T14:42:55.067Z,44.62
2018-10-21T14:43:55.036Z,45.20
2018-10-21T14:45:47.892Z,44.70
2018-10-21T14:46:47.813Z,44.41
2018-10-21T14:48:40.652Z,44.12
2018-10-21T14:49:40.596Z,43.93
2018-10-21T14:51:33.448Z,45.06
2018-10-21T14:52:33.409Z,45.42
2018-10-21T14:54:26.230Z,45.90
2018-10-21T14:55:26.181Z,46.28
2018-10-21T14:57:19.002Z,46.77
2018-10-21T14:58:18.968Z,47.25
2018-10-21T15:00:11.831Z,47.53
2018-10-21T15:01:11.751Z,47.44
2018-10-21T15:03:04.683Z,47.82
2018-10-21T15:04:04.543Z,47.25
2018-10-21T15:05:57.358Z,47.05
2018-10-21T15:06:57.312Z,47.63
2018-10-21T15:08:50.337Z,46.65
2018-10-21T15:09:50.374Z,47.22
2018-10-21T15:11:43.102Z,47.99
2018-10-21T15:12:43.082Z,48.47
2018-10-21T15:14:35.902Z,48.57
2018-10-21T15:15:35.879Z,48.57
2018-10-21T15:17:28.683Z,48.28
2018-10-21T15:18:28.640Z,48.09
2018-10-21T15:20:21.474Z,48.38
2018-10-21T15:21:21.414Z,47.99
2018-10-21T15:23:14.282Z,48.25
2018-10-21T15:24:14.202Z,48.07
2018-10-21T15:26:07.057Z,48.54
2018-10-21T15:27:07.005Z,48.07
2018-10-21T15:28:59.817Z,48.25
2018-10-21T15:29:59.829Z,47.77
2018-10-21T15:31:52.590Z,48.54
2018-10-21T15:32:52.545Z,48.64
2018-10-21T15:34:45.484Z,48.54
2018-10-21T15:35:45.333Z,48.83
2018-10-21T15:37:38.135Z,48.74
2018-10-21T15:38:38.109Z,48.25
2018-10-21T15:40:30.920Z,48.74
2018-10-21T15:41:30.884Z,48.74
2018-10-21T15:43:24.687Z,48.74
2018-10-21T15:44:24.668Z,48.83
2018-10-21T15:46:17.546Z,48.93
2018-10-21T15:47:17.433Z,48.74
2018-10-21T15:49:10.243Z,48.74
2018-10-21T15:50:10.266Z,48.52
2018-10-21T15:52:03.170Z,48.33
2018-10-21T15:53:02.993Z,48.80
2018-10-21T15:54:55.804Z,48.90
2018-10-21T15:55:55.778Z,48.90
2018-10-21T15:57:48.592Z,49.76
2018-10-21T15:58:48.536Z,49.76
2018-10-21T16:00:41.380Z,49.86
2018-10-21T16:01:41.322Z,50.15
2018-10-21T16:03:34.151Z,50.53
2018-10-21T16:04:34.116Z,50.15
2018-10-21T16:06:26.937Z,50.73
2018-10-21T16:07:26.894Z,50.73
2018-10-21T16:09:19.720Z,50.99
2018-10-21T16:10:19.675Z,51.46
2018-10-21T16:12:12.546Z,51.75
2018-10-21T16:13:12.451Z,51.08
2018-10-21T16:15:05.267Z,51.37
2018-10-21T16:16:05.259Z,52.04
2018-10-21T16:17:58.058Z,52.33
2018-10-21T16:18:58.003Z,52.14
2018-10-21T16:20:50.815Z,51.46
2018-10-21T16:21:50.798Z,52.30
2018-10-21T16:23:43.605Z,51.92
2018-10-21T16:24:43.569Z,52.69
2018-10-21T16:26:36.386Z,52.87
2018-10-21T16:27:36.356Z,53.07
2018-10-21T16:29:29.145Z,53.55
2018-10-21T16:30:29.112Z,53.83
2018-10-21T16:32:22.057Z,54.00
2018-10-21T16:33:21.892Z,54.70
2018-10-21T16:35:14.706Z,55.34
2018-10-21T16:36:14.679Z,55.24
2018-10-21T16:38:07.517Z,55.15
2018-10-21T16:39:07.544Z,55.53
2018-10-21T16:41:00.266Z,55.53
2018-10-21T16:42:00.237Z,56.10
2018-10-21T16:43:53.074Z,56.20
2018-10-21T16:44:53.007Z,56.59
2018-10-21T16:46:45.837Z,57.06
2018-10-21T16:47:45.787Z,57.13
2018-10-21T16:49:38.606Z,57.70
2018-10-21T16:50:38.558Z,57.70
2018-10-21T16:52:31.387Z,57.70
2018-10-21T16:53:31.403Z,58.66
2018-10-21T16:55:24.148Z,58.56
2018-10-21T16:56:24.103Z,59.23
2018-10-21T16:58:16.937Z,58.76
2018-10-21T16:59:16.969Z,59.91
2018-10-21T17:01:09.904Z,59.72
2018-10-21T17:02:09.657Z,60.06
2018-10-21T17:04:02.485Z,60.26
2018-10-21T17:05:02.452Z,61.41
2018-10-21T17:06:56.266Z,61.22
2018-10-21T17:07:56.243Z,62.55
2018-10-21T17:09:49.413Z,62.37
2018-10-21T17:10:49.041Z,63.03
2018-10-21T17:12:41.798Z,63.42
2018-10-21T17:13:41.775Z,63.42
2018-10-21T17:15:34.582Z,63.42
2018-10-21T17:16:34.538Z,63.60
2018-10-21T17:18:27.381Z,64.09
2018-10-21T17:19:27.327Z,63.99
2018-10-21T17:21:20.133Z,63.13
2018-10-21T17:22:20.090Z,63.76
2018-10-21T17:24:13.001Z,64.43
2018-10-21T17:25:12.872Z,64.72
2018-10-21T17:27:05.677Z,65.39
2018-10-21T17:28:05.677Z,65.20
2018-10-21T17:29:58.492Z,65.39
2018-10-21T17:30:58.467Z,65.97
2018-10-21T17:32:51.230Z,66.25
2018-10-21T17:33:51.200Z,66.63
2018-10-21T17:35:44.013Z,67.30
2018-10-21T17:36:43.972Z,67.69
2018-10-21T17:38:36.784Z,68.26
2018-10-21T17:39:36.746Z,68.16
2018-10-21T17:41:29.566Z,67.94
2018-10-21T17:42:29.539Z,68.45
2018-10-21T17:44:22.350Z,68.80
2018-10-21T17:45:22.295Z,69.27
2018-10-21T17:47:15.101Z,69.27
2018-10-21T17:48:15.085Z,69.56
2018-10-21T17:50:07.905Z,69.95
2018-10-21T17:51:07.856Z,69.76
2018-10-21T17:53:00.674Z,69.95
2018-10-21T17:54:00.625Z,70.52
2018-10-21T17:55:53.454Z,71.00
2018-10-21T17:56:53.408Z,70.87
2018-10-21T17:58:46.225Z,71.53
2018-10-21T17:59:46.174Z,71.25
2018-10-21T18:01:39.015Z,71.63
2018-10-21T18:02:38.944Z,71.44
2018-10-21T18:04:31.765Z,71.82
2018-10-21T18:05:31.727Z,71.63
2018-10-21T18:07:24.551Z,71.44
2018-10-21T18:08:24.488Z,71.63
2018-10-21T18:10:17.398Z,72.36
2018-10-21T18:11:17.265Z,72.68
2018-10-21T18:13:10.105Z,72.45
2018-10-21T18:14:10.031Z,72.97
2018-10-21T18:16:02.859Z,73.22
2018-10-21T18:17:02.810Z,73.50
2018-10-21T18:18:55.629Z,73.41
2018-10-21T18:19:55.597Z,73.22
2018-10-21T18:21:48.387Z,73.69
2018-10-21T18:22:48.357Z,74.08
2018-10-21T18:24:41.161Z,73.98
2018-10-21T18:25:41.131Z,74.17
2018-10-21T18:27:33.941Z,74.17
2018-10-21T18:28:33.882Z,74.65
2018-10-21T18:30:26.714Z,74.55
2018-10-21T18:31:26.657Z,75.22
2018-10-21T18:33:19.481Z,75.09